sensor_id;sensor_type;location;lat;lon;timestamp;pressure;altitude;pressure_sealevel;temperature;humidity
77027;BME280;65956;52.986;17.490;2024-01-27T04:16:52;100459.20;;;3.06;94.83
77027;BME280;65956;52.986;17.490;2024-01-27T04:19:18;100443.79;;;3.04;94.82
77027;BME280;65956;52.986;17.490;2024-01-27T04:21:45;100439.34;;;3.04;94.81
77027;BME280;65956;52.986;17.490;2024-01-27T04:24:11;100442.91;;;3.06;95.16
77027;BME280;65956;52.986;17.490;2024-01-27T04:26:37;100435.52;;;3.09;94.47
77027;BME280;65956;52.986;17.490;2024-01-27T04:29:03;100440.30;;;3.15;93.90
77027;BME280;65956;52.986;17.490;2024-01-27T04:31:29;100441.34;;;3.18;93.79
77027;BME280;65956;52.986;17.490;2024-01-27T04:33:57;100447.21;;;3.21;93.50
77027;BME280;65956;52.986;17.490;2024-01-27T04:36:28;100439.42;;;3.23;93.22
77027;BME280;65956;52.986;17.490;2024-01-27T04:38:57;100443.71;;;3.24;93.40
77027;BME280;65956;52.986;17.490;2024-01-27T04:41:23;100458.05;;;3.27;92.16
77027;BME280;65956;52.986;17.490;2024-01-27T04:43:49;100456.89;;;3.29;92.15
77027;BME280;65956;52.986;17.490;2024-01-27T04:46:16;100459.84;;;3.28;91.81
77027;BME280;65956;52.986;17.490;2024-01-27T04:48:42;100449.41;;;3.25;92.22
77027;BME280;65956;52.986;17.490;2024-01-27T04:51:08;100452.55;;;3.19;93.33
77027;BME280;65956;52.986;17.490;2024-01-27T04:53:34;100476.45;;;3.16;93.51
77027;BME280;65956;52.986;17.490;2024-01-27T04:56:00;100473.38;;;3.11;93.99
77027;BME280;65956;52.986;17.490;2024-01-27T04:58:26;100482.14;;;3.07;94.78
77027;BME280;65956;52.986;17.490;2024-01-27T05:00:52;100477.02;;;2.99;96.08
77027;BME280;65956;52.986;17.490;2024-01-27T05:03:18;100480.45;;;2.91;97.01
77027;BME280;65956;52.986;17.490;2024-01-27T05:05:44;100488.74;;;2.84;97.83
77027;BME280;65956;52.986;17.490;2024-01-27T05:08:11;100508.98;;;2.78;98.82
77027;BME280;65956;52.986;17.490;2024-01-27T05:10:37;100512.45;;;2.73;99.71
77027;BME280;65956;52.986;17.490;2024-01-27T05:13:03;100496.54;;;2.69;100.00
77027;BME280;65956;52.986;17.490;2024-01-27T05:15:30;100508.62;;;2.66;100.00
77027;BME280;65956;52.986;17.490;2024-01-27T05:17:56;100524.83;;;2.60;100.00
77027;BME280;65956;52.986;17.490;2024-01-27T05:20:22;100525.80;;;2.55;100.00
77027;BME280;65956;52.986;17.490;2024-01-27T05:22:48;100524.41;;;2.49;100.00
77027;BME280;65956;52.986;17.490;2024-01-27T05:25:14;100526.81;;;2.45;100.00
77027;BME280;65956;52.986;17.490;2024-01-27T05:27:42;100518.99;;;2.43;100.00
77027;BME280;65956;52.986;17.490;2024-01-27T05:30:08;100531.64;;;2.42;100.00
77027;BME280;65956;52.986;17.490;2024-01-27T05:32:35;100540.13;;;2.39;100.00
77027;BME280;65956;52.986;17.490;2024-01-27T05:35:01;100533.84;;;2.37;100.00
77027;BME280;65956;52.986;17.490;2024-01-27T05:37:27;100543.75;;;2.36;100.00
77027;BME280;65956;52.986;17.490;2024-01-27T05:39:53;100543.02;;;2.33;100.00
77027;BME280;65956;52.986;17.490;2024-01-27T05:42:19;100545.45;;;2.28;100.00
77027;BME280;65956;52.986;17.490;2024-01-27T05:44:45;100537.20;;;2.25;100.00
77027;BME280;65956;52.986;17.490;2024-01-27T05:47:11;100544.67;;;2.23;100.00
77027;BME280;65956;52.986;17.490;2024-01-27T05:49:37;100548.23;;;2.21;100.00
77027;BME280;65956;52.986;17.490;2024-01-27T05:52:04;100563.07;;;2.20;100.00
77027;BME280;65956;52.986;17.490;2024-01-27T05:54:30;100561.95;;;2.16;100.00
77027;BME280;65956;52.986;17.490;2024-01-27T05:56:56;100568.59;;;2.12;100.00
77027;BME280;65956;52.986;17.490;2024-01-27T05:59:22;100579.02;;;2.08;100.00
77027;BME280;65956;52.986;17.490;2024-01-27T06:01:49;100573.60;;;2.07;100.00
77027;BME280;65956;52.986;17.490;2024-01-27T06:04:15;100577.05;;;2.05;100.00
77027;BME280;65956;52.986;17.490;2024-01-27T06:06:41;100581.26;;;2.04;100.00
77027;BME280;65956;52.986;17.490;2024-01-27T06:09:07;100582.01;;;2.02;100.00
77027;BME280;65956;52.986;17.490;2024-01-27T06:11:39;100581.13;;;2.00;100.00
77027;BME280;65956;52.986;17.490;2024-01-27T06:14:05;100586.98;;;1.98;100.00
77027;BME280;65956;52.986;17.490;2024-01-27T06:16:32;100583.60;;;1.97;100.00
77027;BME280;65956;52.986;17.490;2024-01-27T06:18:58;100591.16;;;1.95;100.00
77027;BME280;65956;52.986;17.490;2024-01-27T06:21:25;100599.55;;;1.97;100.00
77027;BME280;65956;52.986;17.490;2024-01-27T06:23:51;100594.77;;;1.99;100.00
77027;BME280;65956;52.986;17.490;2024-01-27T06:26:17;100598.16;;;2.00;100.00
77027;BME280;65956;52.986;17.490;2024-01-27T06:28:44;100612.55;;;2.00;100.00
77027;BME280;65956;52.986;17.490;2024-01-27T06:31:10;100614.04;;;2.00;100.00
77027;BME280;65956;52.986;17.490;2024-01-27T06:33:36;100616.55;;;2.00;100.00
77027;BME280;65956;52.986;17.490;2024-01-27T06:36:02;100620.97;;;2.02;100.00
77027;BME280;65956;52.986;17.490;2024-01-27T06:38:28;100616.48;;;2.01;100.00
77027;BME280;65956;52.986;17.490;2024-01-27T06:40:55;100628.46;;;2.01;100.00
77027;BME280;65956;52.986;17.490;2024-01-27T06:43:21;100618.60;;;2.03;100.00
77027;BME280;65956;52.986;17.490;2024-01-27T06:45:47;100634.05;;;2.05;100.00
77027;BME280;65956;52.986;17.490;2024-01-27T06:48:13;100630.86;;;2.07;100.00
77027;BME280;65956;52.986;17.490;2024-01-27T06:50:39;100630.30;;;2.08;100.00
77027;BME280;65956;52.986;17.490;2024-01-27T06:53:06;100633.23;;;2.09;100.00
77027;BME280;65956;52.986;17.490;2024-01-27T06:55:32;100650.86;;;2.10;100.00
77027;BME280;65956;52.986;17.490;2024-01-27T06:57:58;100651.16;;;2.12;100.00
77027;BME280;65956;52.986;17.490;2024-01-27T07:00:24;100656.18;;;2.14;100.00
77027;BME280;65956;52.986;17.490;2024-01-27T07:02:50;100659.48;;;2.16;100.00
77027;BME280;65956;52.986;17.490;2024-01-27T07:05:16;100659.64;;;2.18;100.00
77027;BME280;65956;52.986;17.490;2024-01-27T07:07:43;100653.73;;;2.19;100.00
77027;BME280;65956;52.986;17.490;2024-01-27T07:10:09;100665.68;;;2.22;100.00
77027;BME280;65956;52.986;17.490;2024-01-27T07:12:35;100670.23;;;2.22;100.00
77027;BME280;65956;52.986;17.490;2024-01-27T07:15:02;100665.02;;;2.21;100.00
77027;BME280;65956;52.986;17.490;2024-01-27T07:17:29;100671.85;;;2.21;100.00
77027;BME280;65956;52.986;17.490;2024-01-27T07:19:55;100664.15;;;2.21;100.00
77027;BME280;65956;52.986;17.490;2024-01-27T07:22:22;100680.13;;;2.22;100.00
77027;BME280;65956;52.986;17.490;2024-01-27T07:24:50;100684.50;;;2.23;100.00
77027;BME280;65956;52.986;17.490;2024-01-27T07:27:17;100685.98;;;2.24;100.00
77027;BME280;65956;52.986;17.490;2024-01-27T07:29:44;100695.83;;;2.26;100.00
77027;BME280;65956;52.986;17.490;2024-01-27T07:32:10;100707.02;;;2.28;100.00
77027;BME280;65956;52.986;17.490;2024-01-27T07:34:43;100711.98;;;2.29;100.00
77027;BME280;65956;52.986;17.490;2024-01-27T07:37:09;100714.19;;;2.31;100.00
77027;BME280;65956;52.986;17.490;2024-01-27T07:39:36;100707.79;;;2.32;100.00
77027;BME280;65956;52.986;17.490;2024-01-27T07:42:02;100720.08;;;2.34;100.00
77027;BME280;65956;52.986;17.490;2024-01-27T07:44:28;100725.59;;;2.36;100.00
77027;BME280;65956;52.986;17.490;2024-01-27T07:46:54;100722.62;;;2.38;100.00
77027;BME280;65956;52.986;17.490;2024-01-27T07:49:20;100726.89;;;2.39;100.00
77027;BME280;65956;52.986;17.490;2024-01-27T07:51:46;100725.80;;;2.41;100.00
77027;BME280;65956;52.986;17.490;2024-01-27T07:54:12;100746.14;;;2.42;100.00
77027;BME280;65956;52.986;17.490;2024-01-27T07:56:38;100752.05;;;2.43;100.00
77027;BME280;65956;52.986;17.490;2024-01-27T07:59:05;100738.61;;;2.44;100.00
77027;BME280;65956;52.986;17.490;2024-01-27T08:01:31;100751.92;;;2.44;100.00
77027;BME280;65956;52.986;17.490;2024-01-27T08:03:57;100764.28;;;2.44;100.00
77027;BME280;65956;52.986;17.490;2024-01-27T08:06:29;100777.69;;;2.45;100.00
77027;BME280;65956;52.986;17.490;2024-01-27T08:08:56;100773.80;;;2.47;100.00
77027;BME280;65956;52.986;17.490;2024-01-27T08:11:22;100775.54;;;2.48;100.00
77027;BME280;65956;52.986;17.490;2024-01-27T08:13:48;100777.45;;;2.48;100.00
77027;BME280;65956;52.986;17.490;2024-01-27T08:16:14;100783.66;;;2.48;100.00
77027;BME280;65956;52.986;17.490;2024-01-27T08:18:41;100770.45;;;2.49;100.00
77027;BME280;65956;52.986;17.490;2024-01-27T08:21:11;100776.41;;;2.51;100.00
77027;BME280;65956;52.986;17.490;2024-01-27T08:23:41;100783.37;;;2.55;100.00
77027;BME280;65956;52.986;17.490;2024-01-27T08:26:07;100794.01;;;2.59;100.00
77027;BME280;65956;52.986;17.490;2024-01-27T08:28:33;100786.98;;;2.63;100.00
77027;BME280;65956;52.986;17.490;2024-01-27T08:30:59;100790.81;;;2.69;100.00
77027;BME280;65956;52.986;17.490;2024-01-27T08:33:27;100793.67;;;2.75;100.00
77027;BME280;65956;52.986;17.490;2024-01-27T08:35:54;100794.83;;;2.80;100.00
77027;BME280;65956;52.986;17.490;2024-01-27T08:38:20;100805.08;;;2.84;100.00
77027;BME280;65956;52.986;17.490;2024-01-27T08:40:46;100808.60;;;2.86;100.00
77027;BME280;65956;52.986;17.490;2024-01-27T08:43:12;100813.70;;;2.90;100.00
77027;BME280;65956;52.986;17.490;2024-01-27T08:45:38;100821.22;;;2.94;100.00
77027;BME280;65956;52.986;17.490;2024-01-27T08:48:07;100828.11;;;2.98;100.00
77027;BME280;65956;52.986;17.490;2024-01-27T08:50:33;100838.95;;;3.00;100.00
77027;BME280;65956;52.986;17.490;2024-01-27T08:52:59;100837.32;;;3.05;100.00
77027;BME280;65956;52.986;17.490;2024-01-27T08:55:25;100841.39;;;3.12;100.00
77027;BME280;65956;52.986;17.490;2024-01-27T08:57:51;100852.46;;;3.17;100.00
77027;BME280;65956;52.986;17.490;2024-01-27T09:00:18;100849.66;;;3.21;100.00
77027;BME280;65956;52.986;17.490;2024-01-27T09:02:45;100864.45;;;3.22;100.00
77027;BME280;65956;52.986;17.490;2024-01-27T09:05:12;100873.73;;;3.23;100.00
77027;BME280;65956;52.986;17.490;2024-01-27T09:07:38;100881.97;;;3.27;100.00
77027;BME280;65956;52.986;17.490;2024-01-27T09:10:05;100876.05;;;3.29;100.00
77027;BME280;65956;52.986;17.490;2024-01-27T09:12:32;100889.02;;;3.32;100.00
77027;BME280;65956;52.986;17.490;2024-01-27T09:14:59;100907.11;;;3.34;100.00
77027;BME280;65956;52.986;17.490;2024-01-27T09:17:25;100898.23;;;3.34;99.97
77027;BME280;65956;52.986;17.490;2024-01-27T09:19:51;100917.29;;;3.39;99.18
77027;BME280;65956;52.986;17.490;2024-01-27T09:22:17;100923.02;;;3.44;98.13
77027;BME280;65956;52.986;17.490;2024-01-27T09:24:43;100919.55;;;3.49;96.96
77027;BME280;65956;52.986;17.490;2024-01-27T09:27:09;100934.78;;;3.52;97.21
77027;BME280;65956;52.986;17.490;2024-01-27T09:29:35;100934.23;;;3.52;97.20
77027;BME280;65956;52.986;17.490;2024-01-27T09:32:02;100948.63;;;3.54;96.63
77027;BME280;65956;52.986;17.490;2024-01-27T09:34:28;100945.41;;;3.57;95.97
77027;BME280;65956;52.986;17.490;2024-01-27T09:36:54;100948.10;;;3.57;96.21
77027;BME280;65956;52.986;17.490;2024-01-27T09:39:20;100954.94;;;3.57;96.36
77027;BME280;65956;52.986;17.490;2024-01-27T09:41:48;100955.45;;;3.59;96.17
77027;BME280;65956;52.986;17.490;2024-01-27T09:44:21;100956.72;;;3.62;95.63
77027;BME280;65956;52.986;17.490;2024-01-27T09:46:49;100972.41;;;3.67;94.73
77027;BME280;65956;52.986;17.490;2024-01-27T09:49:16;100972.56;;;3.73;94.16
77027;BME280;65956;52.986;17.490;2024-01-27T09:51:42;100971.42;;;3.75;93.84
77027;BME280;65956;52.986;17.490;2024-01-27T09:54:09;100985.70;;;3.77;93.25
77027;BME280;65956;52.986;17.490;2024-01-27T09:56:35;100980.67;;;3.80;92.98
77027;BME280;65956;52.986;17.490;2024-01-27T09:59:01;100982.88;;;3.84;92.42
77027;BME280;65956;52.986;17.490;2024-01-27T10:01:29;100998.23;;;3.88;92.08
77027;BME280;65956;52.986;17.490;2024-01-27T10:03:57;100997.95;;;3.93;91.90
77027;BME280;65956;52.986;17.490;2024-01-27T10:06:24;100998.55;;;4.00;90.87
77027;BME280;65956;52.986;17.490;2024-01-27T10:08:53;101000.98;;;4.07;90.70
77027;BME280;65956;52.986;17.490;2024-01-27T10:11:20;100996.33;;;4.10;90.63
77027;BME280;65956;52.986;17.490;2024-01-27T10:13:58;101012.94;;;4.12;90.52
77027;BME280;65956;52.986;17.490;2024-01-27T10:16:28;101010.96;;;4.14;90.43
77027;BME280;65956;52.986;17.490;2024-01-27T10:19:01;101014.77;;;4.14;90.35
77027;BME280;65956;52.986;17.490;2024-01-27T10:21:28;101019.80;;;4.14;89.60
77027;BME280;65956;52.986;17.490;2024-01-27T10:23:54;101018.45;;;4.14;89.22
77027;BME280;65956;52.986;17.490;2024-01-27T10:26:20;101033.77;;;4.16;89.86
77027;BME280;65956;52.986;17.490;2024-01-27T10:28:54;101038.61;;;4.16;90.13
77027;BME280;65956;52.986;17.490;2024-01-27T10:31:28;101041.04;;;4.16;90.02
77027;BME280;65956;52.986;17.490;2024-01-27T10:33:56;101044.10;;;4.19;90.27
77027;BME280;65956;52.986;17.490;2024-01-27T10:36:23;101036.85;;;4.21;89.79
77027;BME280;65956;52.986;17.490;2024-01-27T10:38:49;101041.35;;;4.24;90.08
77027;BME280;65956;52.986;17.490;2024-01-27T10:41:22;101046.01;;;4.28;89.57
77027;BME280;65956;52.986;17.490;2024-01-27T10:43:51;101047.29;;;4.31;88.70
77027;BME280;65956;52.986;17.490;2024-01-27T10:46:19;101056.79;;;4.33;88.16
77027;BME280;65956;52.986;17.490;2024-01-27T10:48:52;101063.44;;;4.37;88.24
77027;BME280;65956;52.986;17.490;2024-01-27T10:51:31;101071.13;;;4.41;88.64
77027;BME280;65956;52.986;17.490;2024-01-27T10:54:03;101075.19;;;4.41;88.43
77027;BME280;65956;52.986;17.490;2024-01-27T10:56:31;101073.22;;;4.43;88.10
77027;BME280;65956;52.986;17.490;2024-01-27T10:58:59;101084.20;;;4.48;87.57
77027;BME280;65956;52.986;17.490;2024-01-27T11:01:26;101089.23;;;4.52;87.59
77027;BME280;65956;52.986;17.490;2024-01-27T11:03:55;101096.61;;;4.52;86.58
77027;BME280;65956;52.986;17.490;2024-01-27T11:06:22;101094.60;;;4.53;86.47
77027;BME280;65956;52.986;17.490;2024-01-27T11:08:49;101093.20;;;4.54;86.87
77027;BME280;65956;52.986;17.490;2024-01-27T11:11:17;101102.55;;;4.58;86.78
77027;BME280;65956;52.986;17.490;2024-01-27T11:13:44;101106.30;;;4.60;86.08
77027;BME280;65956;52.986;17.490;2024-01-27T11:16:17;101105.00;;;4.59;84.90
77027;BME280;65956;52.986;17.490;2024-01-27T11:18:45;101110.23;;;4.65;85.12
77027;BME280;65956;52.986;17.490;2024-01-27T11:21:15;101104.45;;;4.68;85.11
77027;BME280;65956;52.986;17.490;2024-01-27T11:23:42;101122.47;;;4.81;85.25
77027;BME280;65956;52.986;17.490;2024-01-27T11:26:09;101116.09;;;5.02;84.77
77027;BME280;65956;52.986;17.490;2024-01-27T11:28:36;101121.23;;;5.27;83.57
77027;BME280;65956;52.986;17.490;2024-01-27T11:31:04;101116.09;;;5.45;82.63
77027;BME280;65956;52.986;17.490;2024-01-27T11:33:30;101125.04;;;5.71;80.78
77027;BME280;65956;52.986;17.490;2024-01-27T11:36:05;101141.01;;;5.90;80.01
77027;BME280;65956;52.986;17.490;2024-01-27T11:38:32;101133.41;;;5.97;79.54
77027;BME280;65956;52.986;17.490;2024-01-27T11:41:01;101141.19;;;6.00;79.20
77027;BME280;65956;52.986;17.490;2024-01-27T11:43:28;101152.55;;;6.20;79.04
77027;BME280;65956;52.986;17.490;2024-01-27T11:45:56;101158.45;;;6.62;76.85
77027;BME280;65956;52.986;17.490;2024-01-27T11:48:22;101152.36;;;6.67;75.78
77027;BME280;65956;52.986;17.490;2024-01-27T11:50:48;101162.30;;;6.99;74.67
77027;BME280;65956;52.986;17.490;2024-01-27T11:53:14;101165.00;;;8.10;71.54
77027;BME280;65956;52.986;17.490;2024-01-27T11:55:41;101174.84;;;9.15;68.22
77027;BME280;65956;52.986;17.490;2024-01-27T11:58:07;101173.08;;;10.00;63.75
77027;BME280;65956;52.986;17.490;2024-01-27T12:00:33;101171.84;;;9.59;63.23
77027;BME280;65956;52.986;17.490;2024-01-27T12:02:59;101181.44;;;9.67;63.59
77027;BME280;65956;52.986;17.490;2024-01-27T12:05:25;101195.39;;;10.08;61.96
77027;BME280;65956;52.986;17.490;2024-01-27T12:07:51;101198.28;;;9.58;63.49
77027;BME280;65956;52.986;17.490;2024-01-27T12:10:18;101200.06;;;10.17;62.70
77027;BME280;65956;52.986;17.490;2024-01-27T12:12:44;101205.45;;;10.17;60.48
77027;BME280;65956;52.986;17.490;2024-01-27T12:15:10;101217.92;;;10.33;60.01
77027;BME280;65956;52.986;17.490;2024-01-27T12:17:36;101222.86;;;11.37;56.82
77027;BME280;65956;52.986;17.490;2024-01-27T12:20:16;101217.67;;;11.77;55.40
77027;BME280;65956;52.986;17.490;2024-01-27T12:22:42;101223.90;;;12.89;53.61
77027;BME280;65956;52.986;17.490;2024-01-27T12:25:10;101236.75;;;13.55;52.07
77027;BME280;65956;52.986;17.490;2024-01-27T12:27:39;101229.33;;;14.40;51.36
77027;BME280;65956;52.986;17.490;2024-01-27T12:30:06;101239.48;;;14.74;47.87
77027;BME280;65956;52.986;17.490;2024-01-27T12:32:33;101236.90;;;14.28;46.69
77027;BME280;65956;52.986;17.490;2024-01-27T12:35:04;101242.23;;;13.74;47.69
77027;BME280;65956;52.986;17.490;2024-01-27T12:37:31;101229.67;;;12.95;49.83
77027;BME280;65956;52.986;17.490;2024-01-27T12:39:57;101251.11;;;11.71;52.97
77027;BME280;65956;52.986;17.490;2024-01-27T12:42:23;101249.81;;;12.70;52.81
77027;BME280;65956;52.986;17.490;2024-01-27T12:44:49;101255.23;;;13.11;49.79
77027;BME280;65956;52.986;17.490;2024-01-27T12:47:15;101271.02;;;13.72;48.43
77027;BME280;65956;52.986;17.490;2024-01-27T12:49:41;101262.05;;;14.24;46.97
77027;BME280;65956;52.986;17.490;2024-01-27T12:52:08;101264.28;;;13.96;46.15
77027;BME280;65956;52.986;17.490;2024-01-27T12:54:34;101266.70;;;13.76;45.83
77027;BME280;65956;52.986;17.490;2024-01-27T12:57:00;101285.11;;;14.14;45.70
77027;BME280;65956;52.986;17.490;2024-01-27T12:59:27;101290.77;;;14.04;44.83
77027;BME280;65956;52.986;17.490;2024-01-27T13:01:54;101285.87;;;13.66;45.49
77027;BME280;65956;52.986;17.490;2024-01-27T13:04:20;101293.80;;;14.16;45.34
77027;BME280;65956;52.986;17.490;2024-01-27T13:06:47;101295.68;;;14.06;44.44
77027;BME280;65956;52.986;17.490;2024-01-27T13:09:13;101299.71;;;13.29;45.15
77027;BME280;65956;52.986;17.490;2024-01-27T13:11:39;101312.06;;;13.00;46.55
77027;BME280;65956;52.986;17.490;2024-01-27T13:14:05;101319.33;;;12.51;47.58
77027;BME280;65956;52.986;17.490;2024-01-27T13:16:32;101316.53;;;11.63;48.94
77027;BME280;65956;52.986;17.490;2024-01-27T13:18:58;101319.45;;;10.72;51.25
77027;BME280;65956;52.986;17.490;2024-01-27T13:21:24;101326.93;;;10.26;52.92
77027;BME280;65956;52.986;17.490;2024-01-27T13:23:50;101337.07;;;10.32;53.29
77027;BME280;65956;52.986;17.490;2024-01-27T13:26:18;101341.45;;;10.27;52.96
77027;BME280;65956;52.986;17.490;2024-01-27T13:28:46;101341.91;;;10.38;52.92
77027;BME280;65956;52.986;17.490;2024-01-27T13:31:15;101346.59;;;10.22;52.93
77027;BME280;65956;52.986;17.490;2024-01-27T13:33:41;101343.27;;;10.32;53.19
77027;BME280;65956;52.986;17.490;2024-01-27T13:36:08;101343.85;;;10.40;53.55
77027;BME280;65956;52.986;17.490;2024-01-27T13:38:34;101346.59;;;10.05;54.07
77027;BME280;65956;52.986;17.490;2024-01-27T13:41:01;101340.20;;;9.54;54.78
77027;BME280;65956;52.986;17.490;2024-01-27T13:43:27;101352.23;;;9.14;55.54
77027;BME280;65956;52.986;17.490;2024-01-27T13:45:53;101351.83;;;8.86;56.42
77027;BME280;65956;52.986;17.490;2024-01-27T13:48:21;101370.15;;;8.76;57.29
77027;BME280;65956;52.986;17.490;2024-01-27T13:50:47;101379.14;;;9.09;56.84
77027;BME280;65956;52.986;17.490;2024-01-27T13:53:13;101389.58;;;9.50;55.91
77027;BME280;65956;52.986;17.490;2024-01-27T13:55:39;101387.50;;;9.83;55.38
77027;BME280;65956;52.986;17.490;2024-01-27T13:58:06;101395.19;;;10.02;55.09
77027;BME280;65956;52.986;17.490;2024-01-27T14:00:32;101389.02;;;9.77;55.42
77027;BME280;65956;52.986;17.490;2024-01-27T14:03:00;101384.73;;;9.46;56.41
77027;BME280;65956;52.986;17.490;2024-01-27T14:05:27;101399.86;;;9.35;56.85
77027;BME280;65956;52.986;17.490;2024-01-27T14:07:53;101400.77;;;9.91;56.19
77027;BME280;65956;52.986;17.490;2024-01-27T14:10:19;101402.04;;;10.64;53.44
77027;BME280;65956;52.986;17.490;2024-01-27T14:12:45;101411.95;;;11.38;50.77
77027;BME280;65956;52.986;17.490;2024-01-27T14:15:11;101419.58;;;11.99;49.08
77027;BME280;65956;52.986;17.490;2024-01-27T14:17:37;101424.45;;;12.59;47.97
77027;BME280;65956;52.986;17.490;2024-01-27T14:20:04;101428.09;;;12.58;47.21
77027;BME280;65956;52.986;17.490;2024-01-27T14:22:31;101431.48;;;12.22;47.88
77027;BME280;65956;52.986;17.490;2024-01-27T14:24:57;101437.29;;;11.52;49.51
77027;BME280;65956;52.986;17.490;2024-01-27T14:27:23;101443.77;;;10.71;51.23
77027;BME280;65956;52.986;17.490;2024-01-27T14:29:53;101439.95;;;9.99;52.84
77027;BME280;65956;52.986;17.490;2024-01-27T14:32:21;101461.52;;;9.55;54.34
77027;BME280;65956;52.986;17.490;2024-01-27T14:34:47;101461.64;;;9.04;55.47
77027;BME280;65956;52.986;17.490;2024-01-27T14:37:15;101466.52;;;9.03;55.85
77027;BME280;65956;52.986;17.490;2024-01-27T14:39:45;101475.71;;;8.95;56.10
77027;BME280;65956;52.986;17.490;2024-01-27T14:42:12;101483.33;;;8.87;56.64
77027;BME280;65956;52.986;17.490;2024-01-27T14:44:39;101487.73;;;8.37;58.03
77027;BME280;65956;52.986;17.490;2024-01-27T14:47:06;101493.96;;;7.71;60.50
77027;BME280;65956;52.986;17.490;2024-01-27T14:49:34;101501.29;;;7.13;63.46
77027;BME280;65956;52.986;17.490;2024-01-27T14:52:02;101502.42;;;6.61;66.23
77027;BME280;65956;52.986;17.490;2024-01-27T14:54:28;101505.65;;;6.21;68.38
77027;BME280;65956;52.986;17.490;2024-01-27T14:56:55;101509.48;;;5.88;69.75
77027;BME280;65956;52.986;17.490;2024-01-27T14:59:22;101523.96;;;5.57;71.48
77027;BME280;65956;52.986;17.490;2024-01-27T15:01:48;101519.31;;;5.36;72.63
77027;BME280;65956;52.986;17.490;2024-01-27T15:04:15;101527.94;;;5.18;73.74
77027;BME280;65956;52.986;17.490;2024-01-27T15:06:41;101534.45;;;4.98;74.81
77027;BME280;65956;52.986;17.490;2024-01-27T15:09:08;101539.82;;;4.80;76.25
77027;BME280;65956;52.986;17.490;2024-01-27T15:11:34;101549.77;;;4.64;77.33
77027;BME280;65956;52.986;17.490;2024-01-27T15:14:00;101552.11;;;4.52;78.01
77027;BME280;65956;52.986;17.490;2024-01-27T15:16:27;101555.54;;;4.42;78.59
77027;BME280;65956;52.986;17.490;2024-01-27T15:18:55;101564.91;;;4.33;79.32
77027;BME280;65956;52.986;17.490;2024-01-27T15:21:21;101569.17;;;4.24;79.79
77027;BME280;65956;52.986;17.490;2024-01-27T15:23:47;101576.33;;;4.16;80.58
77027;BME280;65956;52.986;17.490;2024-01-27T15:26:13;101576.58;;;4.09;80.77
77027;BME280;65956;52.986;17.490;2024-01-27T15:28:40;101582.56;;;4.03;81.05
77027;BME280;65956;52.986;17.490;2024-01-27T15:31:06;101590.14;;;3.97;81.52
77027;BME280;65956;52.986;17.490;2024-01-27T15:33:32;101601.63;;;3.93;81.33
77027;BME280;65956;52.986;17.490;2024-01-27T15:35:59;101603.13;;;3.87;81.70
77027;BME280;65956;52.986;17.490;2024-01-27T15:38:25;101601.91;;;3.83;81.90
77027;BME280;65956;52.986;17.490;2024-01-27T15:40:51;101602.45;;;3.81;82.30
77027;BME280;65956;52.986;17.490;2024-01-27T15:43:18;101604.55;;;3.80;82.41
77027;BME280;65956;52.986;17.490;2024-01-27T15:45:44;101605.95;;;3.83;82.32
77027;BME280;65956;52.986;17.490;2024-01-27T15:48:10;101605.79;;;3.87;81.88
77027;BME280;65956;52.986;17.490;2024-01-27T15:50:38;101612.64;;;3.90;81.77
77027;BME280;65956;52.986;17.490;2024-01-27T15:53:05;101614.25;;;3.92;82.00
77027;BME280;65956;52.986;17.490;2024-01-27T15:55:31;101616.99;;;3.94;82.01
77027;BME280;65956;52.986;17.490;2024-01-27T15:57:59;101617.88;;;3.95;82.10
77027;BME280;65956;52.986;17.490;2024-01-27T16:00:25;101622.37;;;3.96;81.99
77027;BME280;65956;52.986;17.490;2024-01-27T16:02:51;101620.56;;;3.99;81.86
77027;BME280;65956;52.986;17.490;2024-01-27T16:05:17;101625.55;;;4.02;82.36
77027;BME280;65956;52.986;17.490;2024-01-27T16:07:44;101626.30;;;4.03;82.51
77027;BME280;65956;52.986;17.490;2024-01-27T16:10:10;101627.11;;;4.04;82.67
77027;BME280;65956;52.986;17.490;2024-01-27T16:12:36;101631.39;;;4.05;83.38
77027;BME280;65956;52.986;17.490;2024-01-27T16:15:02;101636.17;;;4.03;83.92
77027;BME280;65956;52.986;17.490;2024-01-27T16:17:30;101642.15;;;4.01;84.75
77027;BME280;65956;52.986;17.490;2024-01-27T16:19:56;101640.44;;;3.99;85.10
77027;BME280;65956;52.986;17.490;2024-01-27T16:22:22;101644.77;;;3.96;85.02
77027;BME280;65956;52.986;17.490;2024-01-27T16:24:51;101648.27;;;3.95;85.10
77027;BME280;65956;52.986;17.490;2024-01-27T16:27:18;101653.23;;;3.93;85.06
77027;BME280;65956;52.986;17.490;2024-01-27T16:29:47;101656.35;;;3.92;85.47
77027;BME280;65956;52.986;17.490;2024-01-27T16:32:14;101658.85;;;3.91;85.27
77027;BME280;65956;52.986;17.490;2024-01-27T16:34:44;101658.63;;;3.91;85.64
77027;BME280;65956;52.986;17.490;2024-01-27T16:37:11;101655.55;;;3.94;85.83
77027;BME280;65956;52.986;17.490;2024-01-27T16:39:37;101657.64;;;3.94;86.04
77027;BME280;65956;52.986;17.490;2024-01-27T16:42:03;101667.44;;;3.96;85.61
77027;BME280;65956;52.986;17.490;2024-01-27T16:44:30;101674.77;;;3.96;85.70
77027;BME280;65956;52.986;17.490;2024-01-27T16:46:56;101677.13;;;3.97;85.84
77027;BME280;65956;52.986;17.490;2024-01-27T16:49:22;101681.41;;;3.98;86.04
77027;BME280;65956;52.986;17.490;2024-01-27T16:51:48;101684.89;;;3.98;85.84
77027;BME280;65956;52.986;17.490;2024-01-27T16:54:15;101690.23;;;3.98;85.83
77027;BME280;65956;52.986;17.490;2024-01-27T16:56:43;101694.10;;;3.98;85.82
77027;BME280;65956;52.986;17.490;2024-01-27T16:59:10;101701.02;;;3.96;86.01